sensor_id;sensor_type;location;lat;lon;timestamp;temperature;humidity
9800;DHT22;4939;52.00085300;4.17406100;2023-03-04T00:01:16;6.70;99.90
9800;DHT22;4939;52.00085300;4.17406100;2023-03-04T00:03:42;6.70;99.90
9800;DHT22;4939;52.00085300;4.17406100;2023-03-04T00:06:07;6.60;99.90
9800;DHT22;4939;52.00085300;4.17406100;2023-03-04T00:08:33;6.60;99.90
9800;DHT22;4939;52.00085300;4.17406100;2023-03-04T00:10:59;6.70;99.90
9800;DHT22;4939;52.00085300;4.17406100;2023-03-04T00:13:25;6.70;99.90
9800;DHT22;4939;52.00085300;4.17406100;2023-03-04T00:15:51;6.70;99.90
9800;DHT22;4939;52.00085300;4.17406100;2023-03-04T00:18:17;6.70;99.90
9800;DHT22;4939;52.00085300;4.17406100;2023-03-04T00:20:43;6.70;99.90
9800;DHT22;4939;52.00085300;4.17406100;2023-03-04T00:23:09;6.70;99.90
9800;DHT22;4939;52.00085300;4.17406100;2023-03-04T00:25:34;6.70;99.90
9800;DHT22;4939;52.00085300;4.17406100;2023-03-04T00:28:00;6.70;99.90
9800;DHT22;4939;52.00085300;4.17406100;2023-03-04T00:30:26;6.70;99.90
9800;DHT22;4939;52.00085300;4.17406100;2023-03-04T00:32:52;6.70;99.90
9800;DHT22;4939;52.00085300;4.17406100;2023-03-04T00:35:17;6.70;99.90
9800;DHT22;4939;52.00085300;4.17406100;2023-03-04T00:37:43;6.70;99.90
9800;DHT22;4939;52.00085300;4.17406100;2023-03-04T00:40:09;6.70;99.90
9800;DHT22;4939;52.00085300;4.17406100;2023-03-04T00:42:35;6.70;99.90
9800;DHT22;4939;52.00085300;4.17406100;2023-03-04T00:45:01;6.70;99.90
9800;DHT22;4939;52.00085300;4.17406100;2023-03-04T00:47:31;6.70;99.90
9800;DHT22;4939;52.00085300;4.17406100;2023-03-04T00:49:56;6.80;99.90
9800;DHT22;4939;52.00085300;4.17406100;2023-03-04T00:52:22;6.70;99.90
9800;DHT22;4939;52.00085300;4.17406100;2023-03-04T00:54:48;6.70;99.90
9800;DHT22;4939;52.00085300;4.17406100;2023-03-04T00:57:13;6.70;99.90
9800;DHT22;4939;52.00085300;4.17406100;2023-03-04T00:59:39;6.70;99.90
9800;DHT22;4939;52.00085300;4.17406100;2023-03-04T01:02:05;6.60;99.90
9800;DHT22;4939;52.00085300;4.17406100;2023-03-04T01:04:31;6.70;99.90
9800;DHT22;4939;52.00085300;4.17406100;2023-03-04T01:06:57;6.70;99.90
9800;DHT22;4939;52.00085300;4.17406100;2023-03-04T01:09:23;6.70;99.90
9800;DHT22;4939;52.00085300;4.17406100;2023-03-04T01:11:49;6.70;99.90
9800;DHT22;4939;52.00085300;4.17406100;2023-03-04T01:14:14;6.60;99.90
9800;DHT22;4939;52.00085300;4.17406100;2023-03-04T01:16:40;7.10;99.90
9800;DHT22;4939;52.00085300;4.17406100;2023-03-04T01:19:06;6.70;99.90
9800;DHT22;4939;52.00085300;4.17406100;2023-03-04T01:21:31;6.70;99.90
9800;DHT22;4939;52.00085300;4.17406100;2023-03-04T01:23:57;6.80;99.90
9800;DHT22;4939;52.00085300;4.17406100;2023-03-04T01:26:23;6.80;99.90
9800;DHT22;4939;52.00085300;4.17406100;2023-03-04T01:28:48;6.80;99.90
9800;DHT22;4939;52.00085300;4.17406100;2023-03-04T01:31:15;6.80;99.90
9800;DHT22;4939;52.00085300;4.17406100;2023-03-04T01:33:41;6.70;99.90
9800;DHT22;4939;52.00085300;4.17406100;2023-03-04T01:36:07;6.70;99.90
9800;DHT22;4939;52.00085300;4.17406100;2023-03-04T01:38:32;6.70;99.90
9800;DHT22;4939;52.00085300;4.17406100;2023-03-04T01:40:58;6.80;99.90
9800;DHT22;4939;52.00085300;4.17406100;2023-03-04T01:43:27;6.80;99.90
9800;DHT22;4939;52.00085300;4.17406100;2023-03-04T01:45:54;6.80;99.90
9800;DHT22;4939;52.00085300;4.17406100;2023-03-04T01:48:27;6.70;99.90
9800;DHT22;4939;52.00085300;4.17406100;2023-03-04T01:50:53;6.70;99.90
9800;DHT22;4939;52.00085300;4.17406100;2023-03-04T01:53:25;6.70;99.90
9800;DHT22;4939;52.00085300;4.17406100;2023-03-04T01:55:53;6.70;99.90
9800;DHT22;4939;52.00085300;4.17406100;2023-03-04T01:58:19;6.70;99.90
9800;DHT22;4939;52.00085300;4.17406100;2023-03-04T02:00:45;6.70;99.90
9800;DHT22;4939;52.00085300;4.17406100;2023-03-04T02:03:14;6.70;99.90
9800;DHT22;4939;52.00085300;4.17406100;2023-03-04T02:05:43;6.70;99.90
9800;DHT22;4939;52.00085300;4.17406100;2023-03-04T02:08:09;6.70;99.90
9800;DHT22;4939;52.00085300;4.17406100;2023-03-04T02:10:37;6.70;99.90
9800;DHT22;4939;52.00085300;4.17406100;2023-03-04T02:13:03;6.70;99.90
9800;DHT22;4939;52.00085300;4.17406100;2023-03-04T02:15:29;6.70;99.90
9800;DHT22;4939;52.00085300;4.17406100;2023-03-04T02:17:55;6.60;99.90
9800;DHT22;4939;52.00085300;4.17406100;2023-03-04T02:20:27;6.60;99.90
9800;DHT22;4939;52.00085300;4.17406100;2023-03-04T02:23:20;6.60;99.90
9800;DHT22;4939;52.00085300;4.17406100;2023-03-04T02:26:15;6.60;99.90
9800;DHT22;4939;52.00085300;4.17406100;2023-03-04T02:28:41;6.60;99.90
9800;DHT22;4939;52.00085300;4.17406100;2023-03-04T02:31:22;6.60;99.90
9800;DHT22;4939;52.00085300;4.17406100;2023-03-04T02:33:49;6.60;99.90
9800;DHT22;4939;52.00085300;4.17406100;2023-03-04T02:36:15;6.60;99.90
9800;DHT22;4939;52.00085300;4.17406100;2023-03-04T02:38:41;6.60;99.90
9800;DHT22;4939;52.00085300;4.17406100;2023-03-04T02:41:11;6.60;99.90
9800;DHT22;4939;52.00085300;4.17406100;2023-03-04T02:43:39;6.60;99.90
9800;DHT22;4939;52.00085300;4.17406100;2023-03-04T02:46:04;6.60;99.90
9800;DHT22;4939;52.00085300;4.17406100;2023-03-04T02:48:30;6.60;99.90
9800;DHT22;4939;52.00085300;4.17406100;2023-03-04T02:50:56;6.60;99.90
9800;DHT22;4939;52.00085300;4.17406100;2023-03-04T02:53:22;6.50;99.90
9800;DHT22;4939;52.00085300;4.17406100;2023-03-04T02:55:50;6.60;99.90
9800;DHT22;4939;52.00085300;4.17406100;2023-03-04T02:58:15;6.60;99.90
9800;DHT22;4939;52.00085300;4.17406100;2023-03-04T03:00:42;6.60;99.90
9800;DHT22;4939;52.00085300;4.17406100;2023-03-04T03:03:08;6.60;99.90
9800;DHT22;4939;52.00085300;4.17406100;2023-03-04T03:05:34;6.60;99.90
9800;DHT22;4939;52.00085300;4.17406100;2023-03-04T03:08:00;6.70;99.90
9800;DHT22;4939;52.00085300;4.17406100;2023-03-04T03:10:26;6.70;99.90
9800;DHT22;4939;52.00085300;4.17406100;2023-03-04T03:12:52;6.60;99.90
9800;DHT22;4939;52.00085300;4.17406100;2023-03-04T03:15:18;6.60;99.90
9800;DHT22;4939;52.00085300;4.17406100;2023-03-04T03:17:44;6.60;99.90
9800;DHT22;4939;52.00085300;4.17406100;2023-03-04T03:20:11;6.50;99.90
9800;DHT22;4939;52.00085300;4.17406100;2023-03-04T03:22:44;6.50;99.90
9800;DHT22;4939;52.00085300;4.17406100;2023-03-04T03:25:11;6.50;99.90
9800;DHT22;4939;52.00085300;4.17406100;2023-03-04T03:27:37;6.40;99.90
9800;DHT22;4939;52.00085300;4.17406100;2023-03-04T03:30:03;6.40;99.90
9800;DHT22;4939;52.00085300;4.17406100;2023-03-04T03:32:29;6.30;99.90
9800;DHT22;4939;52.00085300;4.17406100;2023-03-04T03:34:55;6.40;99.90
9800;DHT22;4939;52.00085300;4.17406100;2023-03-04T03:37:21;6.40;99.90
9800;DHT22;4939;52.00085300;4.17406100;2023-03-04T03:39:46;6.40;99.90
9800;DHT22;4939;52.00085300;4.17406100;2023-03-04T03:42:12;6.40;99.90
9800;DHT22;4939;52.00085300;4.17406100;2023-03-04T03:44:38;6.40;99.90
9800;DHT22;4939;52.00085300;4.17406100;2023-03-04T03:47:03;6.50;99.90
9800;DHT22;4939;52.00085300;4.17406100;2023-03-04T03:49:29;6.50;99.90
9800;DHT22;4939;52.00085300;4.17406100;2023-03-04T03:51:55;6.50;99.90
9800;DHT22;4939;52.00085300;4.17406100;2023-03-04T03:54:21;6.50;99.90
9800;DHT22;4939;52.00085300;4.17406100;2023-03-04T03:56:46;6.60;99.90
9800;DHT22;4939;52.00085300;4.17406100;2023-03-04T03:59:12;6.50;99.90
9800;DHT22;4939;52.00085300;4.17406100;2023-03-04T04:01:38;6.50;99.90
9800;DHT22;4939;52.00085300;4.17406100;2023-03-04T04:04:04;6.50;99.90
9800;DHT22;4939;52.00085300;4.17406100;2023-03-04T04:06:29;6.50;99.90
9800;DHT22;4939;52.00085300;4.17406100;2023-03-04T04:08:55;6.60;99.90
9800;DHT22;4939;52.00085300;4.17406100;2023-03-04T04:11:21;6.60;99.90
9800;DHT22;4939;52.00085300;4.17406100;2023-03-04T04:13:47;6.60;99.90
9800;DHT22;4939;52.00085300;4.17406100;2023-03-04T04:16:12;6.60;99.90
9800;DHT22;4939;52.00085300;4.17406100;2023-03-04T04:18:38;6.50;99.90
9800;DHT22;4939;52.00085300;4.17406100;2023-03-04T04:21:05;6.50;99.90
9800;DHT22;4939;52.00085300;4.17406100;2023-03-04T04:23:31;6.50;99.90
9800;DHT22;4939;52.00085300;4.17406100;2023-03-04T04:25:57;6.50;99.90
9800;DHT22;4939;52.00085300;4.17406100;2023-03-04T04:28:23;6.50;99.90
9800;DHT22;4939;52.00085300;4.17406100;2023-03-04T04:30:50;6.50;99.90
9800;DHT22;4939;52.00085300;4.17406100;2023-03-04T04:33:15;6.50;99.90
9800;DHT22;4939;52.00085300;4.17406100;2023-03-04T04:35:41;6.40;99.90
9800;DHT22;4939;52.00085300;4.17406100;2023-03-04T04:38:08;6.40;99.90
9800;DHT22;4939;52.00085300;4.17406100;2023-03-04T04:40:34;6.40;99.90
9800;DHT22;4939;52.00085300;4.17406100;2023-03-04T04:43:01;6.40;99.90
9800;DHT22;4939;52.00085300;4.17406100;2023-03-04T04:45:27;6.40;99.90
9800;DHT22;4939;52.00085300;4.17406100;2023-03-04T04:47:53;6.40;99.90
9800;DHT22;4939;52.00085300;4.17406100;2023-03-04T04:50:24;6.40;99.90
9800;DHT22;4939;52.00085300;4.17406100;2023-03-04T04:52:50;6.50;99.90
9800;DHT22;4939;52.00085300;4.17406100;2023-03-04T04:55:16;6.40;99.90
9800;DHT22;4939;52.00085300;4.17406100;2023-03-04T04:57:42;6.50;99.90
9800;DHT22;4939;52.00085300;4.17406100;2023-03-04T05:00:08;6.50;99.90
9800;DHT22;4939;52.00085300;4.17406100;2023-03-04T05:02:35;6.50;99.90
9800;DHT22;4939;52.00085300;4.17406100;2023-03-04T05:05:03;6.50;99.90
9800;DHT22;4939;52.00085300;4.17406100;2023-03-04T05:07:28;6.60;99.90
9800;DHT22;4939;52.00085300;4.17406100;2023-03-04T05:09:54;6.50;99.90
9800;DHT22;4939;52.00085300;4.17406100;2023-03-04T05:12:20;6.60;99.90
9800;DHT22;4939;52.00085300;4.17406100;2023-03-04T05:14:45;6.60;99.90
9800;DHT22;4939;52.00085300;4.17406100;2023-03-04T05:17:12;6.60;99.90
9800;DHT22;4939;52.00085300;4.17406100;2023-03-04T05:19:38;6.60;99.90
9800;DHT22;4939;52.00085300;4.17406100;2023-03-04T05:22:04;6.60;99.90
9800;DHT22;4939;52.00085300;4.17406100;2023-03-04T05:24:29;6.60;99.90
9800;DHT22;4939;52.00085300;4.17406100;2023-03-04T05:26:55;6.60;99.90
9800;DHT22;4939;52.00085300;4.17406100;2023-03-04T05:29:21;6.60;99.90
9800;DHT22;4939;52.00085300;4.17406100;2023-03-04T05:31:46;6.50;99.90
9800;DHT22;4939;52.00085300;4.17406100;2023-03-04T05:34:12;6.50;99.90
9800;DHT22;4939;52.00085300;4.17406100;2023-03-04T05:36:38;6.50;99.90
9800;DHT22;4939;52.00085300;4.17406100;2023-03-04T05:39:03;6.60;99.90
9800;DHT22;4939;52.00085300;4.17406100;2023-03-04T05:41:29;6.50;99.90
9800;DHT22;4939;52.00085300;4.17406100;2023-03-04T05:43:55;6.50;99.90
9800;DHT22;4939;52.00085300;4.17406100;2023-03-04T05:46:21;6.60;99.90
9800;DHT22;4939;52.00085300;4.17406100;2023-03-04T05:48:50;6.50;99.90
9800;DHT22;4939;52.00085300;4.17406100;2023-03-04T05:51:17;6.50;99.90
9800;DHT22;4939;52.00085300;4.17406100;2023-03-04T05:53:42;7.30;99.90
9800;DHT22;4939;52.00085300;4.17406100;2023-03-04T05:56:10;7.20;99.90
9800;DHT22;4939;52.00085300;4.17406100;2023-03-04T05:58:36;6.60;99.90
9800;DHT22;4939;52.00085300;4.17406100;2023-03-04T06:01:03;6.90;99.90
9800;DHT22;4939;52.00085300;4.17406100;2023-03-04T06:03:28;6.60;99.90
9800;DHT22;4939;52.00085300;4.17406100;2023-03-04T06:05:54;6.60;99.90
9800;DHT22;4939;52.00085300;4.17406100;2023-03-04T06:08:20;6.60;99.90
9800;DHT22;4939;52.00085300;4.17406100;2023-03-04T06:10:46;6.60;99.90
9800;DHT22;4939;52.00085300;4.17406100;2023-03-04T06:13:12;6.60;99.90
9800;DHT22;4939;52.00085300;4.17406100;2023-03-04T06:15:38;6.60;99.90
9800;DHT22;4939;52.00085300;4.17406100;2023-03-04T06:18:05;6.60;99.90
9800;DHT22;4939;52.00085300;4.17406100;2023-03-04T06:20:31;6.60;99.90
9800;DHT22;4939;52.00085300;4.17406100;2023-03-04T06:22:57;6.60;99.90
9800;DHT22;4939;52.00085300;4.17406100;2023-03-04T06:25:23;6.60;99.90
9800;DHT22;4939;52.00085300;4.17406100;2023-03-04T06:27:49;6.60;99.90
9800;DHT22;4939;52.00085300;4.17406100;2023-03-04T06:30:15;6.70;99.90
9800;DHT22;4939;52.00085300;4.17406100;2023-03-04T06:32:41;6.70;99.90
9800;DHT22;4939;52.00085300;4.17406100;2023-03-04T06:35:10;6.70;99.90
9800;DHT22;4939;52.00085300;4.17406100;2023-03-04T06:37:36;6.70;99.90
9800;DHT22;4939;52.00085300;4.17406100;2023-03-04T06:40:03;6.70;99.90
9800;DHT22;4939;52.00085300;4.17406100;2023-03-04T06:42:29;6.70;99.90
9800;DHT22;4939;52.00085300;4.17406100;2023-03-04T06:44:55;6.70;99.90
9800;DHT22;4939;52.00085300;4.17406100;2023-03-04T06:47:20;6.70;99.90
9800;DHT22;4939;52.00085300;4.17406100;2023-03-04T06:49:46;6.70;99.90
9800;DHT22;4939;52.00085300;4.17406100;2023-03-04T06:52:12;6.70;99.90
9800;DHT22;4939;52.00085300;4.17406100;2023-03-04T06:54:38;6.80;99.90
9800;DHT22;4939;52.00085300;4.17406100;2023-03-04T06:57:04;6.80;99.90
9800;DHT22;4939;52.00085300;4.17406100;2023-03-04T06:59:32;7.70;99.90
9800;DHT22;4939;52.00085300;4.17406100;2023-03-04T07:01:57;6.80;99.90
9800;DHT22;4939;52.00085300;4.17406100;2023-03-04T07:04:23;6.80;99.90
9800;DHT22;4939;52.00085300;4.17406100;2023-03-04T07:06:49;6.90;99.90
9800;DHT22;4939;52.00085300;4.17406100;2023-03-04T07:09:16;6.80;99.90
9800;DHT22;4939;52.00085300;4.17406100;2023-03-04T07:11:42;6.80;99.90
9800;DHT22;4939;52.00085300;4.17406100;2023-03-04T07:14:08;6.80;99.90
9800;DHT22;4939;52.00085300;4.17406100;2023-03-04T07:16:33;6.80;99.90
9800;DHT22;4939;52.00085300;4.17406100;2023-03-04T07:18:59;6.80;99.90
9800;DHT22;4939;52.00085300;4.17406100;2023-03-04T07:21:25;6.80;99.90
9800;DHT22;4939;52.00085300;4.17406100;2023-03-04T07:23:51;6.90;99.90
9800;DHT22;4939;52.00085300;4.17406100;2023-03-04T07:26:16;6.90;99.90
9800;DHT22;4939;52.00085300;4.17406100;2023-03-04T07:28:42;6.90;99.90
9800;DHT22;4939;52.00085300;4.17406100;2023-03-04T07:33:48;6.90;99.90
9800;DHT22;4939;52.00085300;4.17406100;2023-03-04T07:36:14;6.90;99.90
9800;DHT22;4939;52.00085300;4.17406100;2023-03-04T07:38:47;6.90;99.90
9800;DHT22;4939;52.00085300;4.17406100;2023-03-04T07:41:14;6.90;99.90
9800;DHT22;4939;52.00085300;4.17406100;2023-03-04T07:43:39;7.00;99.90
9800;DHT22;4939;52.00085300;4.17406100;2023-03-04T07:46:05;7.00;99.90
9800;DHT22;4939;52.00085300;4.17406100;2023-03-04T07:48:31;6.90;99.90
9800;DHT22;4939;52.00085300;4.17406100;2023-03-04T07:51:09;6.80;99.90
9800;DHT22;4939;52.00085300;4.17406100;2023-03-04T07:53:36;6.80;99.90
9800;DHT22;4939;52.00085300;4.17406100;2023-03-04T07:56:03;6.70;99.90
9800;DHT22;4939;52.00085300;4.17406100;2023-03-04T07:58:29;6.70;99.90
9800;DHT22;4939;52.00085300;4.17406100;2023-03-04T08:00:55;6.80;99.90
9800;DHT22;4939;52.00085300;4.17406100;2023-03-04T08:03:21;6.80;99.90
9800;DHT22;4939;52.00085300;4.17406100;2023-03-04T08:05:46;6.80;99.90
9800;DHT22;4939;52.00085300;4.17406100;2023-03-04T08:08:12;6.80;99.90
9800;DHT22;4939;52.00085300;4.17406100;2023-03-04T08:10:38;6.90;99.90
9800;DHT22;4939;52.00085300;4.17406100;2023-03-04T08:13:05;7.00;99.90
9800;DHT22;4939;52.00085300;4.17406100;2023-03-04T08:15:31;7.10;99.90
9800;DHT22;4939;52.00085300;4.17406100;2023-03-04T08:18:00;7.20;99.90
9800;DHT22;4939;52.00085300;4.17406100;2023-03-04T08:20:26;7.20;99.90
9800;DHT22;4939;52.00085300;4.17406100;2023-03-04T08:22:52;7.20;99.90
9800;DHT22;4939;52.00085300;4.17406100;2023-03-04T08:25:17;7.30;99.90
9800;DHT22;4939;52.00085300;4.17406100;2023-03-04T08:27:43;7.30;99.90
9800;DHT22;4939;52.00085300;4.17406100;2023-03-04T08:30:09;7.30;99.90
9800;DHT22;4939;52.00085300;4.17406100;2023-03-04T08:32:35;7.30;99.90
9800;DHT22;4939;52.00085300;4.17406100;2023-03-04T08:35:01;7.30;99.90
9800;DHT22;4939;52.00085300;4.17406100;2023-03-04T08:37:30;7.20;99.90
9800;DHT22;4939;52.00085300;4.17406100;2023-03-04T08:39:56;7.10;99.90
9800;DHT22;4939;52.00085300;4.17406100;2023-03-04T08:42:22;7.00;99.90
9800;DHT22;4939;52.00085300;4.17406100;2023-03-04T08:44:49;6.80;99.90
9800;DHT22;4939;52.00085300;4.17406100;2023-03-04T08:47:15;6.80;99.90
9800;DHT22;4939;52.00085300;4.17406100;2023-03-04T08:49:41;6.80;99.90
9800;DHT22;4939;52.00085300;4.17406100;2023-03-04T08:52:06;6.80;99.90
9800;DHT22;4939;52.00085300;4.17406100;2023-03-04T08:54:32;6.80;99.90
9800;DHT22;4939;52.00085300;4.17406100;2023-03-04T08:56:57;6.80;99.90
9800;DHT22;4939;52.00085300;4.17406100;2023-03-04T08:59:23;7.00;99.90
9800;DHT22;4939;52.00085300;4.17406100;2023-03-04T09:01:49;7.20;99.90
9800;DHT22;4939;52.00085300;4.17406100;2023-03-04T09:04:14;7.30;99.90
9800;DHT22;4939;52.00085300;4.17406100;2023-03-04T09:09:58;7.60;99.90
9800;DHT22;4939;52.00085300;4.17406100;2023-03-04T09:12:33;7.70;99.90
9800;DHT22;4939;52.00085300;4.17406100;2023-03-04T09:14:59;7.60;99.90
9800;DHT22;4939;52.00085300;4.17406100;2023-03-04T09:17:25;7.60;99.90
9800;DHT22;4939;52.00085300;4.17406100;2023-03-04T09:19:51;7.80;99.90
9800;DHT22;4939;52.00085300;4.17406100;2023-03-04T09:22:16;7.90;99.90
9800;DHT22;4939;52.00085300;4.17406100;2023-03-04T09:24:42;8.00;99.90
9800;DHT22;4939;52.00085300;4.17406100;2023-03-04T09:27:08;8.00;99.90
9800;DHT22;4939;52.00085300;4.17406100;2023-03-04T09:29:34;8.00;99.90
9800;DHT22;4939;52.00085300;4.17406100;2023-03-04T09:31:59;8.00;99.90
9800;DHT22;4939;52.00085300;4.17406100;2023-03-04T09:34:25;8.10;99.90
9800;DHT22;4939;52.00085300;4.17406100;2023-03-04T09:36:51;8.10;99.90
9800;DHT22;4939;52.00085300;4.17406100;2023-03-04T10:05:19;8.30;99.90
9800;DHT22;4939;52.00085300;4.17406100;2023-03-04T10:07:49;8.40;99.90
9800;DHT22;4939;52.00085300;4.17406100;2023-03-04T10:10:36;8.40;99.90
9800;DHT22;4939;52.00085300;4.17406100;2023-03-04T10:13:05;8.50;99.90
9800;DHT22;4939;52.00085300;4.17406100;2023-03-04T10:15:39;8.40;99.90
9800;DHT22;4939;52.00085300;4.17406100;2023-03-04T10:19:01;8.50;99.90
9800;DHT22;4939;52.00085300;4.17406100;2023-03-04T10:21:53;8.50;99.90
9800;DHT22;4939;52.00085300;4.17406100;2023-03-04T10:24:14;8.50;99.90
9800;DHT22;4939;52.00085300;4.17406100;2023-03-04T10:26:45;8.60;99.90
9800;DHT22;4939;52.00085300;4.17406100;2023-03-04T10:29:16;8.80;99.90
9800;DHT22;4939;52.00085300;4.17406100;2023-03-04T10:31:43;8.80;99.90
9800;DHT22;4939;52.00085300;4.17406100;2023-03-04T10:34:11;8.90;99.90
9800;DHT22;4939;52.00085300;4.17406100;2023-03-04T10:39:17;8.50;99.90
9800;DHT22;4939;52.00085300;4.17406100;2023-03-04T10:41:52;6.30;99.90
9800;DHT22;4939;52.00085300;4.17406100;2023-03-04T10:44:18;8.00;99.90
9800;DHT22;4939;52.00085300;4.17406100;2023-03-04T10:46:46;7.90;99.90
9800;DHT22;4939;52.00085300;4.17406100;2023-03-04T10:49:17;7.90;99.90
9800;DHT22;4939;52.00085300;4.17406100;2023-03-04T10:51:52;8.00;99.90
9800;DHT22;4939;52.00085300;4.17406100;2023-03-04T10:54:42;7.90;99.90
9800;DHT22;4939;52.00085300;4.17406100;2023-03-04T10:57:35;7.70;99.90
9800;DHT22;4939;52.00085300;4.17406100;2023-03-04T11:00:29;7.80;99.90
9800;DHT22;4939;52.00085300;4.17406100;2023-03-04T11:05:31;7.90;99.90
9800;DHT22;4939;52.00085300;4.17406100;2023-03-04T11:07:58;8.00;99.90
9800;DHT22;4939;52.00085300;4.17406100;2023-03-04T11:10:29;8.20;99.90
9800;DHT22;4939;52.00085300;4.17406100;2023-03-04T11:12:58;8.40;99.90
9800;DHT22;4939;52.00085300;4.17406100;2023-03-04T11:15:26;8.50;99.90
9800;DHT22;4939;52.00085300;4.17406100;2023-03-04T11:17:54;8.50;99.90
9800;DHT22;4939;52.00085300;4.17406100;2023-03-04T11:20:46;8.60;99.90
9800;DHT22;4939;52.00085300;4.17406100;2023-03-04T11:23:29;8.60;99.90
9800;DHT22;4939;52.00085300;4.17406100;2023-03-04T11:26:08;8.80;99.90
9800;DHT22;4939;52.00085300;4.17406100;2023-03-04T11:31:48;9.00;99.90
9800;DHT22;4939;52.00085300;4.17406100;2023-03-04T11:34:47;8.90;99.90
9800;DHT22;4939;52.00085300;4.17406100;2023-03-04T11:37:20;8.90;99.90
9800;DHT22;4939;52.00085300;4.17406100;2023-03-04T11:44:54;8.90;99.90
9800;DHT22;4939;52.00085300;4.17406100;2023-03-04T11:53:36;8.80;99.90
9800;DHT22;4939;52.00085300;4.17406100;2023-03-04T11:56:38;8.70;99.90
9800;DHT22;4939;52.00085300;4.17406100;2023-03-04T11:59:19;9.00;99.90
9800;DHT22;4939;52.00085300;4.17406100;2023-03-04T12:10:43;9.30;99.90
9800;DHT22;4939;52.00085300;4.17406100;2023-03-04T12:18:35;9.20;99.90
9800;DHT22;4939;52.00085300;4.17406100;2023-03-04T12:24:17;9.20;99.90
9800;DHT22;4939;52.00085300;4.17406100;2023-03-04T12:29:55;9.00;99.90
9800;DHT22;4939;52.00085300;4.17406100;2023-03-04T12:32:40;9.20;99.90
9800;DHT22;4939;52.00085300;4.17406100;2023-03-04T12:43:27;8.50;99.90
9800;DHT22;4939;52.00085300;4.17406100;2023-03-04T12:48:30;8.20;99.90
9800;DHT22;4939;52.00085300;4.17406100;2023-03-04T12:51:08;8.20;99.90
9800;DHT22;4939;52.00085300;4.17406100;2023-03-04T12:56:53;8.10;99.90
9800;DHT22;4939;52.00085300;4.17406100;2023-03-04T12:59:21;8.10;99.90
9800;DHT22;4939;52.00085300;4.17406100;2023-03-04T13:07:26;8.20;99.90
9800;DHT22;4939;52.00085300;4.17406100;2023-03-04T13:10:04;8.00;99.90
9800;DHT22;4939;52.00085300;4.17406100;2023-03-04T13:12:49;7.80;99.90
9800;DHT22;4939;52.00085300;4.17406100;2023-03-04T13:15:26;7.80;99.90
9800;DHT22;4939;52.00085300;4.17406100;2023-03-04T13:18:12;7.80;99.90
9800;DHT22;4939;52.00085300;4.17406100;2023-03-04T13:23:32;7.90;99.90
9800;DHT22;4939;52.00085300;4.17406100;2023-03-04T13:28:28;8.00;99.90
9800;DHT22;4939;52.00085300;4.17406100;2023-03-04T13:43:51;8.10;99.90
9800;DHT22;4939;52.00085300;4.17406100;2023-03-04T14:04:16;8.40;99.90
9800;DHT22;4939;52.00085300;4.17406100;2023-03-04T14:06:44;8.30;99.90
9800;DHT22;4939;52.00085300;4.17406100;2023-03-04T14:09:19;8.30;99.90
9800;DHT22;4939;52.00085300;4.17406100;2023-03-04T14:11:46;8.40;99.90
9800;DHT22;4939;52.00085300;4.17406100;2023-03-04T14:14:16;8.50;99.90
9800;DHT22;4939;52.00085300;4.17406100;2023-03-04T14:16:46;8.60;99.90
9800;DHT22;4939;52.00085300;4.17406100;2023-03-04T14:19:17;8.60;99.90
9800;DHT22;4939;52.00085300;4.17406100;2023-03-04T14:21:46;8.60;99.90
9800;DHT22;4939;52.00085300;4.17406100;2023-03-04T14:24:15;8.70;99.90
9800;DHT22;4939;52.00085300;4.17406100;2023-03-04T14:26:40;8.60;99.90
9800;DHT22;4939;52.00085300;4.17406100;2023-03-04T14:29:42;8.70;99.90
9800;DHT22;4939;52.00085300;4.17406100;2023-03-04T14:32:09;8.80;99.90
9800;DHT22;4939;52.00085300;4.17406100;2023-03-04T14:34:37;8.80;99.90
9800;DHT22;4939;52.00085300;4.17406100;2023-03-04T14:37:15;8.80;99.90
9800;DHT22;4939;52.00085300;4.17406100;2023-03-04T14:39:44;8.70;99.90
9800;DHT22;4939;52.00085300;4.17406100;2023-03-04T14:42:12;8.60;99.90
9800;DHT22;4939;52.00085300;4.17406100;2023-03-04T14:44:45;8.60;99.90
9800;DHT22;4939;52.00085300;4.17406100;2023-03-04T14:47:27;8.60;99.90
9800;DHT22;4939;52.00085300;4.17406100;2023-03-04T14:49:54;8.60;99.90
9800;DHT22;4939;52.00085300;4.17406100;2023-03-04T14:52:47;8.50;99.90
9800;DHT22;4939;52.00085300;4.17406100;2023-03-04T14:55:25;8.60;99.90
9800;DHT22;4939;52.00085300;4.17406100;2023-03-04T14:58:51;9.00;99.90
9800;DHT22;4939;52.00085300;4.17406100;2023-03-04T15:00:38;9.20;99.90
9800;DHT22;4939;52.00085300;4.17406100;2023-03-04T15:04:17;9.10;99.90
9800;DHT22;4939;52.00085300;4.17406100;2023-03-04T15:06:38;9.10;99.90
9800;DHT22;4939;52.00085300;4.17406100;2023-03-04T15:09:15;8.90;99.90
9800;DHT22;4939;52.00085300;4.17406100;2023-03-04T15:11:48;8.70;99.90
9800;DHT22;4939;52.00085300;4.17406100;2023-03-04T15:14:40;8.50;99.90
9800;DHT22;4939;52.00085300;4.17406100;2023-03-04T15:17:24;8.60;99.90
9800;DHT22;4939;52.00085300;4.17406100;2023-03-04T15:20:11;9.00;99.90
9800;DHT22;4939;52.00085300;4.17406100;2023-03-04T15:25:14;8.90;99.90
9800;DHT22;4939;52.00085300;4.17406100;2023-03-04T15:27:41;8.70;99.90
9800;DHT22;4939;52.00085300;4.17406100;2023-03-04T15:30:21;8.60;99.90
9800;DHT22;4939;52.00085300;4.17406100;2023-03-04T15:32:48;8.60;99.90
9800;DHT22;4939;52.00085300;4.17406100;2023-03-04T15:35:15;8.50;99.90
9800;DHT22;4939;52.00085300;4.17406100;2023-03-04T15:37:42;8.50;99.90
9800;DHT22;4939;52.00085300;4.17406100;2023-03-04T15:40:35;8.50;99.90
9800;DHT22;4939;52.00085300;4.17406100;2023-03-04T15:43:04;8.40;99.90
9800;DHT22;4939;52.00085300;4.17406100;2023-03-04T15:45:35;8.40;99.90
9800;DHT22;4939;52.00085300;4.17406100;2023-03-04T15:48:03;8.40;99.90
9800;DHT22;4939;52.00085300;4.17406100;2023-03-04T15:50:33;8.50;99.90
9800;DHT22;4939;52.00085300;4.17406100;2023-03-04T15:53:01;8.40;99.90
9800;DHT22;4939;52.00085300;4.17406100;2023-03-04T15:55:28;8.30;99.90
9800;DHT22;4939;52.00085300;4.17406100;2023-03-04T15:57:56;8.20;99.90
9800;DHT22;4939;52.00085300;4.17406100;2023-03-04T16:00:23;8.10;99.90
9800;DHT22;4939;52.00085300;4.17406100;2023-03-04T16:02:49;8.10;99.90
9800;DHT22;4939;52.00085300;4.17406100;2023-03-04T16:05:15;8.10;99.90
9800;DHT22;4939;52.00085300;4.17406100;2023-03-04T16:07:45;8.10;99.90
9800;DHT22;4939;52.00085300;4.17406100;2023-03-04T16:10:26;8.00;99.90
9800;DHT22;4939;52.00085300;4.17406100;2023-03-04T16:12:55;8.00;99.90
9800;DHT22;4939;52.00085300;4.17406100;2023-03-04T16:15:26;8.00;99.90
9800;DHT22;4939;52.00085300;4.17406100;2023-03-04T16:17:53;7.90;99.90